• Join FlightAware (Why Join?)
  • Login
  • US Flag 
03:54AM EST


 

Airport Tracker/Info


-or-


 

Live Flight TrackerFlight Track Log ✈ AWI3680 ✈ 12-Jul-2013 ✈ KALB - KPHL

Flight Track Log - Related Links

Times and Time Zones

All times are in EDT time to prevent confusion due to time zone crossing. See the AWI3680 flight status page for this flight to view local times or setup timezone preferences in your user account.

Time Position Orientation Groundspeed Altitude Reporting Facility
EDT Latitude Longitude Course Direction KTS MPH feet Rate Location/Type
10:01PM 42.7256 -73.8053 220° Southwest 156 180 1,700  Level Boston Center
10:02PM 42.6983 -73.8272 211° Southwest 192 221 3,000 2,280 Climbing Boston Center
10:04PM 42.7334 -74.2065 270° West  Level FlightAware Approximate
10:04PM 42.7169 -73.9914 279° West 307 353 7,300  Level Boston Center
10:05PM 42.7157 -74.3344 220° Southwest  Level FlightAware Approximate
10:05PM 42.7258 -74.0964 277° West 296 341 10,700  Level Boston Center
10:06PM 42.6391 -74.4207 220° Southwest  Level FlightAware Approximate
10:06PM 42.7386 -74.2239 278° West 296 341 13,500  Level Boston Center
10:07PM 42.7244 -74.3281 260° West 309 356 15,400 1,200 Climbing Boston Center
10:08PM 42.6436 -74.4272 222° Southwest 323 372 16,000 300 Climbing Boston Center
10:09PM 42.5692 -74.5122 220° Southwest 363 418 16,000  Level Boston Center
10:10PM 42.4756 -74.6161 219° Southwest 399 459 16,000  Level Boston Center
10:11PM 42.3986 -74.7061 221° Southwest 412 474 16,000  Level Boston Center
10:13PM 42.2131 -74.9175 220° Southwest 388 447 16,000  Level New York Center
10:14PM 42.1203 -75.0094 216° Southwest 377 434 16,000  Level New York Center
10:15PM 42.0411 -75.0714 210° Southwest 377 434 16,000  Level New York Center
10:16PM 41.9531 -75.1467 212° Southwest 377 434 16,000  Level New York Center
10:17PM 41.8564 -75.2264 212° Southwest 377 434 16,000  Level New York Center
10:18PM 41.7642 -75.2981 210° Southwest 377 434 16,000 -600 Level New York Center
10:19PM 41.6761 -75.3700 211° Southwest 377 434 14,900 -1,140 Descending New York Center
10:20PM 41.5986 -75.4339 212° Southwest 377 434 13,800 -1,200 Descending New York Center
10:21PM 41.5019 -75.5103 211° Southwest 377 434 12,600 -900 Descending New York Center
10:22PM 41.4158 -75.5789 211° Southwest 377 434 12,000 -300 Descending New York Center
10:23PM 41.3275 -75.6472 210° Southwest 372 428 12,100  Climbing New York Center
10:24PM 41.2361 -75.6903 200° South 365 420 12,100  Level New York Center
10:25PM 41.1489 -75.6867 178° South 343 395 12,100  Level New York Center
10:26PM 41.0531 -75.6881 181° South 353 406 12,100 -60 Level New York Center
10:27PM 40.9447 -75.6883 180° South 353 406 12,000 -60 Descending New York Center
10:28PM 40.8469 -75.6867 179° South 353 406 12,000  Level New York Center
10:29PM 40.7594 -75.6861 180° South 353 406 12,000  Level New York Center
10:30PM 40.6508 -75.6864 180° South 353 406 12,000  Level New York Center
10:31PM 40.5628 -75.6500 163° South 332 382 12,000 -480 Level New York Center
10:32PM 40.5147 -75.5539 123° Southeast 309 356 11,100 -960 Descending New York Center
10:33PM 40.4719 -75.4744 125° Southeast 290 334 10,200 -600 Descending New York Center
10:34PM 40.4078 -75.4100 143° Southeast 272 313 10,000 -300 Descending New York Center
10:35PM 40.3406 -75.3703 156° South 272 313 9,600 -840 Descending New York Center
10:36PM 40.2733 -75.3331 157° South 267 307 8,400 -1,380 Descending New York Center
10:37PM 40.1972 -75.3606 195° South 269 310 7,000 -1,200 Descending New York Center
10:38PM 40.1250 -75.3939 199° South 279 321 6,100 -540 Descending New York Center
10:39PM 40.0700 -75.4175 198° South 241 277 6,000 -60 Descending New York Center
10:40PM 40.0181 -75.4086 173° South 207 238 6,000  Level New York Center
10:41PM 39.9667 -75.3914 166° South 191 220 6,000  Level New York Center
10:42PM 39.9281 -75.4214 211° Southwest 175 201 6,000  Level New York Center
10:43PM 39.9081 -75.5067 253° West 208 239 6,000  Level New York Center
10:44PM 39.8903 -75.5814 253° West 221 254 6,000 -540 Level New York Center
10:45PM 39.8750 -75.6506 254° West 216 249 5,000 -600 Descending New York Center
10:48PM 39.8000 -75.7500 226° Southwest 161 185 4,000 -300 Descending Philadelphia TRACON
10:49PM 39.7833 -75.6833 108° East 169 194 4,000  Level Philadelphia TRACON
10:50PM 39.7833 -75.6333 90° East 165 190 4,000  Level Philadelphia TRACON
10:51PM 39.8000 -75.5833 67° East 166 191 4,000 -180 Level Philadelphia TRACON
10:52PM 39.8167 -75.5167 72° East 164 189 3,700 -600 Descending Philadelphia TRACON
10:53PM 39.8167 -75.4500 90° East 163 188 2,800 -900 Descending Philadelphia TRACON
10:54PM 39.8333 -75.4000 67° East 159 183 1,900 -900 Descending Philadelphia TRACON